sensor_id;sensor_type;location;lat;lon;timestamp;P1;durP1;ratioP1;P2;durP2;ratioP2
30539;SDS011;17321;46.312;4.776;2023-12-28T00:00:31;8.63;;;3.45;;
30539;SDS011;17321;46.312;4.776;2023-12-28T00:02:57;7.22;;;3.20;;
30539;SDS011;17321;46.312;4.776;2023-12-28T00:05:23;6.55;;;2.95;;
30539;SDS011;17321;46.312;4.776;2023-12-28T00:07:49;5.10;;;3.08;;
30539;SDS011;17321;46.312;4.776;2023-12-28T00:10:22;6.25;;;3.05;;
30539;SDS011;17321;46.312;4.776;2023-12-28T00:12:48;5.53;;;3.65;;
30539;SDS011;17321;46.312;4.776;2023-12-28T00:15:14;8.70;;;3.95;;
30539;SDS011;17321;46.312;4.776;2023-12-28T00:17:40;7.20;;;3.65;;
30539;SDS011;17321;46.312;4.776;2023-12-28T00:20:06;5.22;;;3.13;;
30539;SDS011;17321;46.312;4.776;2023-12-28T00:22:32;7.50;;;3.10;;
30539;SDS011;17321;46.312;4.776;2023-12-28T00:24:58;6.32;;;3.50;;
30539;SDS011;17321;46.312;4.776;2023-12-28T00:27:24;5.05;;;3.33;;
30539;SDS011;17321;46.312;4.776;2023-12-28T00:29:50;4.78;;;2.88;;
30539;SDS011;17321;46.312;4.776;2023-12-28T00:32:16;4.95;;;3.28;;
30539;SDS011;17321;46.312;4.776;2023-12-28T00:34:42;7.47;;;3.50;;
30539;SDS011;17321;46.312;4.776;2023-12-28T00:37:08;7.78;;;3.78;;
30539;SDS011;17321;46.312;4.776;2023-12-28T00:39:34;9.75;;;3.42;;
30539;SDS011;17321;46.312;4.776;2023-12-28T00:42:00;10.38;;;3.80;;
30539;SDS011;17321;46.312;4.776;2023-12-28T00:44:27;5.57;;;3.45;;
30539;SDS011;17321;46.312;4.776;2023-12-28T00:46:53;8.48;;;3.83;;
30539;SDS011;17321;46.312;4.776;2023-12-28T00:49:19;7.50;;;3.15;;
30539;SDS011;17321;46.312;4.776;2023-12-28T00:51:45;10.40;;;3.22;;
30539;SDS011;17321;46.312;4.776;2023-12-28T00:54:11;7.72;;;3.25;;
30539;SDS011;17321;46.312;4.776;2023-12-28T00:56:37;4.00;;;3.13;;
30539;SDS011;17321;46.312;4.776;2023-12-28T00:59:03;6.00;;;3.50;;
30539;SDS011;17321;46.312;4.776;2023-12-28T01:01:29;7.55;;;3.17;;
30539;SDS011;17321;46.312;4.776;2023-12-28T01:03:58;4.60;;;3.20;;
30539;SDS011;17321;46.312;4.776;2023-12-28T01:06:24;7.15;;;3.28;;
30539;SDS011;17321;46.312;4.776;2023-12-28T01:08:54;5.68;;;3.25;;
30539;SDS011;17321;46.312;4.776;2023-12-28T01:11:20;4.40;;;2.60;;
30539;SDS011;17321;46.312;4.776;2023-12-28T01:13:46;7.28;;;3.40;;
30539;SDS011;17321;46.312;4.776;2023-12-28T01:16:12;7.60;;;3.40;;
30539;SDS011;17321;46.312;4.776;2023-12-28T01:18:39;7.18;;;3.22;;
30539;SDS011;17321;46.312;4.776;2023-12-28T01:21:05;7.57;;;3.92;;
30539;SDS011;17321;46.312;4.776;2023-12-28T01:23:31;6.85;;;3.05;;
30539;SDS011;17321;46.312;4.776;2023-12-28T01:25:57;6.55;;;3.95;;
30539;SDS011;17321;46.312;4.776;2023-12-28T01:28:23;3.22;;;2.83;;
30539;SDS011;17321;46.312;4.776;2023-12-28T01:30:49;4.30;;;3.15;;
30539;SDS011;17321;46.312;4.776;2023-12-28T01:33:15;6.28;;;3.42;;
30539;SDS011;17321;46.312;4.776;2023-12-28T01:35:41;8.65;;;3.83;;
30539;SDS011;17321;46.312;4.776;2023-12-28T01:38:07;5.30;;;3.25;;
30539;SDS011;17321;46.312;4.776;2023-12-28T01:40:33;7.07;;;3.22;;
30539;SDS011;17321;46.312;4.776;2023-12-28T01:42:59;7.18;;;3.50;;
30539;SDS011;17321;46.312;4.776;2023-12-28T01:45:26;16.10;;;3.85;;
30539;SDS011;17321;46.312;4.776;2023-12-28T01:47:52;6.55;;;4.10;;
30539;SDS011;17321;46.312;4.776;2023-12-28T01:50:19;5.95;;;3.33;;
30539;SDS011;17321;46.312;4.776;2023-12-28T01:52:46;6.28;;;3.50;;
30539;SDS011;17321;46.312;4.776;2023-12-28T01:55:12;6.65;;;3.95;;
30539;SDS011;17321;46.312;4.776;2023-12-28T01:57:39;8.07;;;3.80;;
30539;SDS011;17321;46.312;4.776;2023-12-28T02:00:06;7.28;;;3.53;;
30539;SDS011;17321;46.312;4.776;2023-12-28T02:02:32;4.05;;;3.08;;
30539;SDS011;17321;46.312;4.776;2023-12-28T02:04:58;7.88;;;3.70;;
30539;SDS011;17321;46.312;4.776;2023-12-28T02:07:25;5.70;;;3.63;;
30539;SDS011;17321;46.312;4.776;2023-12-28T02:09:51;5.93;;;3.22;;
30539;SDS011;17321;46.312;4.776;2023-12-28T02:12:17;8.10;;;3.65;;
30539;SDS011;17321;46.312;4.776;2023-12-28T02:14:43;4.82;;;3.33;;
30539;SDS011;17321;46.312;4.776;2023-12-28T02:17:20;6.32;;;3.35;;
30539;SDS011;17321;46.312;4.776;2023-12-28T02:19:51;7.78;;;3.20;;
30539;SDS011;17321;46.312;4.776;2023-12-28T02:22:18;8.55;;;3.85;;
30539;SDS011;17321;46.312;4.776;2023-12-28T02:27:22;8.70;;;3.40;;
30539;SDS011;17321;46.312;4.776;2023-12-28T02:29:48;8.32;;;3.30;;
30539;SDS011;17321;46.312;4.776;2023-12-28T02:32:14;7.05;;;3.13;;
30539;SDS011;17321;46.312;4.776;2023-12-28T02:34:42;5.32;;;2.75;;
30539;SDS011;17321;46.312;4.776;2023-12-28T02:37:09;7.63;;;3.58;;
30539;SDS011;17321;46.312;4.776;2023-12-28T02:39:37;3.72;;;2.97;;
30539;SDS011;17321;46.312;4.776;2023-12-28T02:42:04;6.78;;;3.22;;
30539;SDS011;17321;46.312;4.776;2023-12-28T02:44:30;8.48;;;3.40;;
30539;SDS011;17321;46.312;4.776;2023-12-28T02:46:56;6.43;;;3.70;;
30539;SDS011;17321;46.312;4.776;2023-12-28T02:49:22;7.95;;;3.30;;
30539;SDS011;17321;46.312;4.776;2023-12-28T02:51:48;5.03;;;3.55;;
30539;SDS011;17321;46.312;4.776;2023-12-28T02:54:14;7.57;;;3.30;;
30539;SDS011;17321;46.312;4.776;2023-12-28T02:56:40;4.93;;;3.05;;
30539;SDS011;17321;46.312;4.776;2023-12-28T02:59:06;8.45;;;3.17;;
30539;SDS011;17321;46.312;4.776;2023-12-28T03:01:32;7.70;;;2.83;;
30539;SDS011;17321;46.312;4.776;2023-12-28T03:03:58;6.97;;;3.45;;
30539;SDS011;17321;46.312;4.776;2023-12-28T03:06:24;7.78;;;3.03;;
30539;SDS011;17321;46.312;4.776;2023-12-28T03:08:50;6.00;;;2.95;;
30539;SDS011;17321;46.312;4.776;2023-12-28T03:11:16;4.38;;;3.15;;
30539;SDS011;17321;46.312;4.776;2023-12-28T03:13:42;7.60;;;3.65;;
30539;SDS011;17321;46.312;4.776;2023-12-28T03:16:08;4.45;;;3.00;;
30539;SDS011;17321;46.312;4.776;2023-12-28T03:18:34;7.88;;;3.20;;
30539;SDS011;17321;46.312;4.776;2023-12-28T03:21:00;5.55;;;3.00;;
30539;SDS011;17321;46.312;4.776;2023-12-28T03:23:26;5.60;;;3.20;;
30539;SDS011;17321;46.312;4.776;2023-12-28T03:25:52;7.78;;;3.13;;
30539;SDS011;17321;46.312;4.776;2023-12-28T03:28:18;5.03;;;3.03;;
30539;SDS011;17321;46.312;4.776;2023-12-28T03:30:45;12.15;;;3.53;;
30539;SDS011;17321;46.312;4.776;2023-12-28T03:33:11;11.70;;;3.88;;
30539;SDS011;17321;46.312;4.776;2023-12-28T03:35:37;4.22;;;3.28;;
30539;SDS011;17321;46.312;4.776;2023-12-28T03:38:03;8.10;;;3.55;;
30539;SDS011;17321;46.312;4.776;2023-12-28T03:40:29;7.60;;;3.03;;
30539;SDS011;17321;46.312;4.776;2023-12-28T03:42:55;7.78;;;3.42;;
30539;SDS011;17321;46.312;4.776;2023-12-28T03:45:21;6.15;;;3.88;;
30539;SDS011;17321;46.312;4.776;2023-12-28T03:47:47;4.60;;;3.42;;
30539;SDS011;17321;46.312;4.776;2023-12-28T03:50:13;6.40;;;3.33;;
30539;SDS011;17321;46.312;4.776;2023-12-28T03:52:40;9.55;;;3.72;;
30539;SDS011;17321;46.312;4.776;2023-12-28T03:55:06;9.40;;;3.70;;
30539;SDS011;17321;46.312;4.776;2023-12-28T03:57:32;6.25;;;3.22;;
30539;SDS011;17321;46.312;4.776;2023-12-28T03:59:58;5.35;;;3.47;;
30539;SDS011;17321;46.312;4.776;2023-12-28T04:02:24;6.88;;;3.38;;
30539;SDS011;17321;46.312;4.776;2023-12-28T04:04:55;5.07;;;3.00;;
30539;SDS011;17321;46.312;4.776;2023-12-28T04:07:23;6.22;;;3.08;;
30539;SDS011;17321;46.312;4.776;2023-12-28T04:09:49;4.22;;;3.17;;
30539;SDS011;17321;46.312;4.776;2023-12-28T04:12:15;8.30;;;3.47;;
30539;SDS011;17321;46.312;4.776;2023-12-28T04:14:41;6.28;;;2.80;;
30539;SDS011;17321;46.312;4.776;2023-12-28T04:17:07;5.60;;;3.28;;
30539;SDS011;17321;46.312;4.776;2023-12-28T04:19:33;6.30;;;3.53;;
30539;SDS011;17321;46.312;4.776;2023-12-28T04:21:59;8.55;;;3.30;;
30539;SDS011;17321;46.312;4.776;2023-12-28T04:24:25;4.88;;;3.05;;
30539;SDS011;17321;46.312;4.776;2023-12-28T04:26:51;8.45;;;3.60;;
30539;SDS011;17321;46.312;4.776;2023-12-28T04:29:17;4.63;;;2.85;;
30539;SDS011;17321;46.312;4.776;2023-12-28T04:31:43;10.75;;;3.58;;
30539;SDS011;17321;46.312;4.776;2023-12-28T04:34:10;8.15;;;3.67;;
30539;SDS011;17321;46.312;4.776;2023-12-28T04:36:40;7.82;;;3.28;;
30539;SDS011;17321;46.312;4.776;2023-12-28T04:39:07;8.93;;;3.92;;
30539;SDS011;17321;46.312;4.776;2023-12-28T04:41:33;5.38;;;3.13;;
30539;SDS011;17321;46.312;4.776;2023-12-28T04:43:59;6.97;;;3.40;;
30539;SDS011;17321;46.312;4.776;2023-12-28T04:46:25;7.28;;;3.38;;
30539;SDS011;17321;46.312;4.776;2023-12-28T04:48:51;9.05;;;4.25;;
30539;SDS011;17321;46.312;4.776;2023-12-28T04:51:17;8.65;;;3.42;;
30539;SDS011;17321;46.312;4.776;2023-12-28T04:53:43;5.18;;;3.10;;
30539;SDS011;17321;46.312;4.776;2023-12-28T04:56:09;6.18;;;3.55;;
30539;SDS011;17321;46.312;4.776;2023-12-28T04:58:35;7.72;;;3.72;;
30539;SDS011;17321;46.312;4.776;2023-12-28T05:01:01;5.97;;;3.35;;
30539;SDS011;17321;46.312;4.776;2023-12-28T05:03:27;6.22;;;3.78;;
30539;SDS011;17321;46.312;4.776;2023-12-28T05:05:53;5.53;;;3.55;;
30539;SDS011;17321;46.312;4.776;2023-12-28T05:08:19;7.97;;;3.97;;
30539;SDS011;17321;46.312;4.776;2023-12-28T05:10:45;6.50;;;3.63;;
30539;SDS011;17321;46.312;4.776;2023-12-28T05:13:11;10.13;;;3.63;;
30539;SDS011;17321;46.312;4.776;2023-12-28T05:15:37;5.70;;;3.60;;
30539;SDS011;17321;46.312;4.776;2023-12-28T05:18:04;12.85;;;3.70;;
30539;SDS011;17321;46.312;4.776;2023-12-28T05:20:31;10.65;;;3.70;;
30539;SDS011;17321;46.312;4.776;2023-12-28T05:22:57;10.32;;;4.05;;
30539;SDS011;17321;46.312;4.776;2023-12-28T05:25:23;5.18;;;3.58;;
30539;SDS011;17321;46.312;4.776;2023-12-28T05:27:49;11.30;;;4.10;;
30539;SDS011;17321;46.312;4.776;2023-12-28T05:30:15;8.50;;;3.67;;
30539;SDS011;17321;46.312;4.776;2023-12-28T05:32:41;7.07;;;4.03;;
30539;SDS011;17321;46.312;4.776;2023-12-28T05:35:07;8.52;;;3.50;;
30539;SDS011;17321;46.312;4.776;2023-12-28T05:37:33;8.23;;;4.25;;
30539;SDS011;17321;46.312;4.776;2023-12-28T05:40:00;6.88;;;4.30;;
30539;SDS011;17321;46.312;4.776;2023-12-28T05:42:26;8.20;;;4.47;;
30539;SDS011;17321;46.312;4.776;2023-12-28T05:44:52;11.05;;;4.60;;
30539;SDS011;17321;46.312;4.776;2023-12-28T05:47:18;7.68;;;4.32;;
30539;SDS011;17321;46.312;4.776;2023-12-28T05:49:44;4.18;;;3.47;;
30539;SDS011;17321;46.312;4.776;2023-12-28T05:52:10;7.53;;;4.03;;
30539;SDS011;17321;46.312;4.776;2023-12-28T05:54:36;6.75;;;4.15;;
30539;SDS011;17321;46.312;4.776;2023-12-28T05:57:02;6.57;;;3.95;;
30539;SDS011;17321;46.312;4.776;2023-12-28T05:59:28;8.38;;;4.03;;
30539;SDS011;17321;46.312;4.776;2023-12-28T06:01:54;9.30;;;3.60;;
30539;SDS011;17321;46.312;4.776;2023-12-28T06:04:20;8.63;;;3.95;;
30539;SDS011;17321;46.312;4.776;2023-12-28T06:06:46;10.88;;;4.25;;
30539;SDS011;17321;46.312;4.776;2023-12-28T06:09:12;10.40;;;4.47;;
30539;SDS011;17321;46.312;4.776;2023-12-28T06:11:38;8.25;;;4.57;;
30539;SDS011;17321;46.312;4.776;2023-12-28T06:14:04;6.32;;;4.45;;
30539;SDS011;17321;46.312;4.776;2023-12-28T06:16:30;10.23;;;4.63;;
30539;SDS011;17321;46.312;4.776;2023-12-28T06:18:58;12.77;;;4.57;;
30539;SDS011;17321;46.312;4.776;2023-12-28T06:21:25;7.18;;;4.57;;
30539;SDS011;17321;46.312;4.776;2023-12-28T06:23:51;8.30;;;4.90;;
30539;SDS011;17321;46.312;4.776;2023-12-28T06:26:17;12.20;;;4.82;;
30539;SDS011;17321;46.312;4.776;2023-12-28T06:28:43;9.80;;;5.22;;
30539;SDS011;17321;46.312;4.776;2023-12-28T06:31:09;9.23;;;4.75;;
30539;SDS011;17321;46.312;4.776;2023-12-28T06:33:35;5.82;;;4.32;;
30539;SDS011;17321;46.312;4.776;2023-12-28T06:36:07;5.93;;;4.50;;
30539;SDS011;17321;46.312;4.776;2023-12-28T06:38:33;7.15;;;5.25;;
30539;SDS011;17321;46.312;4.776;2023-12-28T06:40:59;8.95;;;4.65;;
30539;SDS011;17321;46.312;4.776;2023-12-28T06:43:25;14.18;;;4.43;;
30539;SDS011;17321;46.312;4.776;2023-12-28T06:45:51;10.95;;;5.07;;
30539;SDS011;17321;46.312;4.776;2023-12-28T06:48:17;9.95;;;5.28;;
30539;SDS011;17321;46.312;4.776;2023-12-28T06:50:43;7.90;;;4.45;;
30539;SDS011;17321;46.312;4.776;2023-12-28T06:53:09;12.07;;;4.78;;
30539;SDS011;17321;46.312;4.776;2023-12-28T06:55:35;9.63;;;5.38;;
30539;SDS011;17321;46.312;4.776;2023-12-28T06:58:01;6.60;;;5.07;;
30539;SDS011;17321;46.312;4.776;2023-12-28T07:00:28;15.13;;;6.43;;
30539;SDS011;17321;46.312;4.776;2023-12-28T07:02:54;11.38;;;5.47;;
30539;SDS011;17321;46.312;4.776;2023-12-28T07:05:20;11.45;;;5.40;;
30539;SDS011;17321;46.312;4.776;2023-12-28T07:07:46;9.38;;;5.72;;
30539;SDS011;17321;46.312;4.776;2023-12-28T07:10:12;13.98;;;5.85;;
30539;SDS011;17321;46.312;4.776;2023-12-28T07:12:38;9.88;;;5.93;;
30539;SDS011;17321;46.312;4.776;2023-12-28T07:15:04;10.57;;;5.13;;
30539;SDS011;17321;46.312;4.776;2023-12-28T07:17:30;10.85;;;5.40;;
30539;SDS011;17321;46.312;4.776;2023-12-28T07:19:56;10.25;;;5.15;;
30539;SDS011;17321;46.312;4.776;2023-12-28T07:22:22;7.93;;;5.57;;
30539;SDS011;17321;46.312;4.776;2023-12-28T07:24:48;7.20;;;5.10;;
30539;SDS011;17321;46.312;4.776;2023-12-28T07:27:14;8.90;;;4.68;;
30539;SDS011;17321;46.312;4.776;2023-12-28T07:29:40;8.65;;;5.43;;
30539;SDS011;17321;46.312;4.776;2023-12-28T07:32:06;10.40;;;5.00;;
30539;SDS011;17321;46.312;4.776;2023-12-28T07:34:34;7.85;;;5.30;;
30539;SDS011;17321;46.312;4.776;2023-12-28T07:37:00;7.82;;;5.43;;
30539;SDS011;17321;46.312;4.776;2023-12-28T07:39:26;9.98;;;4.93;;
30539;SDS011;17321;46.312;4.776;2023-12-28T07:41:52;9.07;;;5.40;;
30539;SDS011;17321;46.312;4.776;2023-12-28T07:44:19;10.32;;;4.82;;
30539;SDS011;17321;46.312;4.776;2023-12-28T07:46:45;9.48;;;5.20;;
30539;SDS011;17321;46.312;4.776;2023-12-28T07:49:11;10.60;;;4.75;;
30539;SDS011;17321;46.312;4.776;2023-12-28T07:51:37;11.65;;;5.93;;
30539;SDS011;17321;46.312;4.776;2023-12-28T07:54:03;6.32;;;5.25;;
30539;SDS011;17321;46.312;4.776;2023-12-28T07:56:29;8.77;;;5.22;;
30539;SDS011;17321;46.312;4.776;2023-12-28T07:58:55;8.27;;;4.75;;
30539;SDS011;17321;46.312;4.776;2023-12-28T08:01:21;8.73;;;4.97;;
30539;SDS011;17321;46.312;4.776;2023-12-28T08:03:47;9.63;;;5.78;;
30539;SDS011;17321;46.312;4.776;2023-12-28T08:06:13;9.07;;;5.88;;
30539;SDS011;17321;46.312;4.776;2023-12-28T08:08:40;7.70;;;5.60;;
30539;SDS011;17321;46.312;4.776;2023-12-28T08:11:06;8.75;;;5.65;;
30539;SDS011;17321;46.312;4.776;2023-12-28T08:13:32;9.48;;;5.93;;
30539;SDS011;17321;46.312;4.776;2023-12-28T08:15:58;11.90;;;6.35;;
30539;SDS011;17321;46.312;4.776;2023-12-28T08:18:24;11.20;;;5.72;;
30539;SDS011;17321;46.312;4.776;2023-12-28T08:20:50;12.27;;;5.97;;
30539;SDS011;17321;46.312;4.776;2023-12-28T08:23:16;9.82;;;5.75;;
30539;SDS011;17321;46.312;4.776;2023-12-28T08:25:42;9.43;;;5.85;;
30539;SDS011;17321;46.312;4.776;2023-12-28T08:28:08;11.52;;;6.10;;
30539;SDS011;17321;46.312;4.776;2023-12-28T08:30:34;9.75;;;6.03;;
30539;SDS011;17321;46.312;4.776;2023-12-28T08:33:00;13.40;;;6.13;;
30539;SDS011;17321;46.312;4.776;2023-12-28T08:35:26;9.32;;;5.50;;
30539;SDS011;17321;46.312;4.776;2023-12-28T08:37:52;9.32;;;5.72;;
30539;SDS011;17321;46.312;4.776;2023-12-28T08:40:18;11.50;;;6.07;;
30539;SDS011;17321;46.312;4.776;2023-12-28T08:42:44;9.63;;;5.93;;
30539;SDS011;17321;46.312;4.776;2023-12-28T08:45:10;11.20;;;5.22;;
30539;SDS011;17321;46.312;4.776;2023-12-28T08:47:36;9.15;;;5.35;;
30539;SDS011;17321;46.312;4.776;2023-12-28T08:50:02;9.60;;;5.57;;
30539;SDS011;17321;46.312;4.776;2023-12-28T08:52:28;9.25;;;6.22;;
30539;SDS011;17321;46.312;4.776;2023-12-28T08:54:54;8.60;;;6.75;;
30539;SDS011;17321;46.312;4.776;2023-12-28T08:57:21;8.13;;;5.85;;
30539;SDS011;17321;46.312;4.776;2023-12-28T08:59:47;15.98;;;6.93;;
30539;SDS011;17321;46.312;4.776;2023-12-28T09:02:13;10.23;;;5.60;;
30539;SDS011;17321;46.312;4.776;2023-12-28T09:04:38;11.15;;;5.35;;
30539;SDS011;17321;46.312;4.776;2023-12-28T09:07:05;9.13;;;6.68;;
30539;SDS011;17321;46.312;4.776;2023-12-28T09:09:31;11.18;;;5.72;;
30539;SDS011;17321;46.312;4.776;2023-12-28T09:11:57;10.95;;;6.80;;
30539;SDS011;17321;46.312;4.776;2023-12-28T09:14:23;8.27;;;6.40;;
30539;SDS011;17321;46.312;4.776;2023-12-28T09:16:49;11.65;;;7.60;;
30539;SDS011;17321;46.312;4.776;2023-12-28T09:19:15;14.98;;;7.30;;
30539;SDS011;17321;46.312;4.776;2023-12-28T09:21:41;12.45;;;7.13;;
30539;SDS011;17321;46.312;4.776;2023-12-28T09:24:07;9.15;;;7.05;;
30539;SDS011;17321;46.312;4.776;2023-12-28T09:26:33;11.90;;;6.63;;
30539;SDS011;17321;46.312;4.776;2023-12-28T09:28:59;10.55;;;6.55;;
30539;SDS011;17321;46.312;4.776;2023-12-28T09:31:25;12.65;;;7.45;;
30539;SDS011;17321;46.312;4.776;2023-12-28T09:33:51;13.20;;;7.80;;
30539;SDS011;17321;46.312;4.776;2023-12-28T09:36:17;10.40;;;7.13;;
30539;SDS011;17321;46.312;4.776;2023-12-28T09:38:43;13.90;;;8.13;;
30539;SDS011;17321;46.312;4.776;2023-12-28T09:41:13;15.63;;;8.40;;
30539;SDS011;17321;46.312;4.776;2023-12-28T09:46:18;9.82;;;8.05;;
30539;SDS011;17321;46.312;4.776;2023-12-28T09:48:44;12.82;;;7.03;;
30539;SDS011;17321;46.312;4.776;2023-12-28T09:51:10;12.15;;;7.05;;
30539;SDS011;17321;46.312;4.776;2023-12-28T09:53:36;12.68;;;7.88;;
30539;SDS011;17321;46.312;4.776;2023-12-28T09:56:02;15.50;;;8.57;;
30539;SDS011;17321;46.312;4.776;2023-12-28T09:58:29;11.40;;;7.82;;
30539;SDS011;17321;46.312;4.776;2023-12-28T10:00:57;16.35;;;8.32;;
30539;SDS011;17321;46.312;4.776;2023-12-28T10:03:23;10.60;;;7.88;;
30539;SDS011;17321;46.312;4.776;2023-12-28T10:05:49;12.20;;;7.90;;
30539;SDS011;17321;46.312;4.776;2023-12-28T10:08:15;11.57;;;7.18;;
30539;SDS011;17321;46.312;4.776;2023-12-28T10:10:42;12.65;;;7.47;;
30539;SDS011;17321;46.312;4.776;2023-12-28T10:13:08;10.90;;;7.07;;
30539;SDS011;17321;46.312;4.776;2023-12-28T10:15:38;12.55;;;7.85;;
30539;SDS011;17321;46.312;4.776;2023-12-28T10:20:30;13.75;;;7.88;;
30539;SDS011;17321;46.312;4.776;2023-12-28T10:22:57;10.98;;;7.43;;
30539;SDS011;17321;46.312;4.776;2023-12-28T10:25:23;9.30;;;6.95;;
30539;SDS011;17321;46.312;4.776;2023-12-28T10:27:50;10.85;;;7.72;;
30539;SDS011;17321;46.312;4.776;2023-12-28T10:30:19;12.48;;;8.45;;
30539;SDS011;17321;46.312;4.776;2023-12-28T10:32:46;14.32;;;9.25;;
30539;SDS011;17321;46.312;4.776;2023-12-28T10:35:12;14.68;;;8.38;;
30539;SDS011;17321;46.312;4.776;2023-12-28T10:37:42;11.63;;;7.47;;
30539;SDS011;17321;46.312;4.776;2023-12-28T10:40:12;9.68;;;7.63;;
30539;SDS011;17321;46.312;4.776;2023-12-28T10:45:14;8.55;;;6.82;;
30539;SDS011;17321;46.312;4.776;2023-12-28T10:47:44;16.35;;;7.30;;
30539;SDS011;17321;46.312;4.776;2023-12-28T10:50:12;13.03;;;7.40;;
30539;SDS011;17321;46.312;4.776;2023-12-28T10:52:39;15.25;;;8.13;;
30539;SDS011;17321;46.312;4.776;2023-12-28T10:58:01;11.10;;;7.05;;
30539;SDS011;17321;46.312;4.776;2023-12-28T11:00:30;10.77;;;6.65;;
30539;SDS011;17321;46.312;4.776;2023-12-28T11:02:58;8.95;;;6.70;;
30539;SDS011;17321;46.312;4.776;2023-12-28T11:05:27;10.63;;;7.28;;
30539;SDS011;17321;46.312;4.776;2023-12-28T11:07:55;9.73;;;7.45;;
30539;SDS011;17321;46.312;4.776;2023-12-28T11:10:23;11.00;;;7.55;;
30539;SDS011;17321;46.312;4.776;2023-12-28T11:12:51;10.48;;;7.57;;
30539;SDS011;17321;46.312;4.776;2023-12-28T11:15:18;14.98;;;7.85;;
30539;SDS011;17321;46.312;4.776;2023-12-28T11:17:44;10.00;;;7.70;;
30539;SDS011;17321;46.312;4.776;2023-12-28T11:20:10;13.40;;;7.70;;
30539;SDS011;17321;46.312;4.776;2023-12-28T11:22:37;10.30;;;7.80;;
30539;SDS011;17321;46.312;4.776;2023-12-28T11:25:04;10.88;;;7.10;;
30539;SDS011;17321;46.312;4.776;2023-12-28T11:27:34;8.20;;;6.85;;
30539;SDS011;17321;46.312;4.776;2023-12-28T11:30:00;10.20;;;7.35;;
30539;SDS011;17321;46.312;4.776;2023-12-28T11:32:28;9.90;;;7.63;;
30539;SDS011;17321;46.312;4.776;2023-12-28T11:34:57;8.00;;;6.78;;
30539;SDS011;17321;46.312;4.776;2023-12-28T11:37:23;13.30;;;7.68;;
30539;SDS011;17321;46.312;4.776;2023-12-28T11:39:51;11.40;;;7.90;;
30539;SDS011;17321;46.312;4.776;2023-12-28T11:42:20;9.68;;;7.10;;
30539;SDS011;17321;46.312;4.776;2023-12-28T11:44:47;18.05;;;6.75;;
30539;SDS011;17321;46.312;4.776;2023-12-28T11:47:21;11.68;;;6.75;;
30539;SDS011;17321;46.312;4.776;2023-12-28T11:49:47;10.35;;;6.82;;
30539;SDS011;17321;46.312;4.776;2023-12-28T11:52:26;11.10;;;6.43;;
30539;SDS011;17321;46.312;4.776;2023-12-28T11:54:52;7.57;;;6.43;;
30539;SDS011;17321;46.312;4.776;2023-12-28T11:57:18;12.30;;;7.03;;
30539;SDS011;17321;46.312;4.776;2023-12-28T11:59:44;10.88;;;6.82;;
30539;SDS011;17321;46.312;4.776;2023-12-28T12:02:11;9.27;;;6.43;;
30539;SDS011;17321;46.312;4.776;2023-12-28T12:04:38;11.38;;;6.72;;
30539;SDS011;17321;46.312;4.776;2023-12-28T12:07:04;10.50;;;6.43;;
30539;SDS011;17321;46.312;4.776;2023-12-28T12:09:30;13.93;;;6.90;;
30539;SDS011;17321;46.312;4.776;2023-12-28T12:14:25;13.02;;;6.88;;
30539;SDS011;17321;46.312;4.776;2023-12-28T12:16:51;11.02;;;7.10;;
30539;SDS011;17321;46.312;4.776;2023-12-28T12:19:18;12.57;;;7.43;;
30539;SDS011;17321;46.312;4.776;2023-12-28T12:21:44;10.80;;;7.25;;
30539;SDS011;17321;46.312;4.776;2023-12-28T12:24:10;11.07;;;6.45;;
30539;SDS011;17321;46.312;4.776;2023-12-28T12:26:36;7.88;;;6.72;;
30539;SDS011;17321;46.312;4.776;2023-12-28T12:29:03;10.55;;;7.28;;
30539;SDS011;17321;46.312;4.776;2023-12-28T12:31:29;9.43;;;6.93;;
30539;SDS011;17321;46.312;4.776;2023-12-28T12:33:56;10.52;;;6.25;;
30539;SDS011;17321;46.312;4.776;2023-12-28T12:36:22;9.38;;;7.47;;
30539;SDS011;17321;46.312;4.776;2023-12-28T12:38:48;12.13;;;8.27;;
30539;SDS011;17321;46.312;4.776;2023-12-28T12:41:14;12.75;;;7.60;;
30539;SDS011;17321;46.312;4.776;2023-12-28T12:43:41;12.82;;;7.70;;
30539;SDS011;17321;46.312;4.776;2023-12-28T12:46:07;9.27;;;6.50;;
30539;SDS011;17321;46.312;4.776;2023-12-28T12:48:33;12.30;;;7.70;;
30539;SDS011;17321;46.312;4.776;2023-12-28T12:51:01;13.05;;;7.68;;
30539;SDS011;17321;46.312;4.776;2023-12-28T12:53:35;12.60;;;7.47;;
30539;SDS011;17321;46.312;4.776;2023-12-28T12:56:04;11.20;;;7.47;;
30539;SDS011;17321;46.312;4.776;2023-12-28T12:58:31;11.90;;;7.45;;
30539;SDS011;17321;46.312;4.776;2023-12-28T13:00:57;11.25;;;6.75;;
30539;SDS011;17321;46.312;4.776;2023-12-28T13:03:27;10.77;;;7.20;;
30539;SDS011;17321;46.312;4.776;2023-12-28T13:05:55;7.72;;;6.93;;
30539;SDS011;17321;46.312;4.776;2023-12-28T13:08:21;10.02;;;6.88;;
30539;SDS011;17321;46.312;4.776;2023-12-28T13:10:47;11.85;;;7.43;;
30539;SDS011;17321;46.312;4.776;2023-12-28T13:13:14;15.45;;;8.35;;
30539;SDS011;17321;46.312;4.776;2023-12-28T13:15:40;11.32;;;7.53;;
30539;SDS011;17321;46.312;4.776;2023-12-28T13:18:06;10.48;;;6.70;;
30539;SDS011;17321;46.312;4.776;2023-12-28T13:20:34;10.15;;;5.85;;
30539;SDS011;17321;46.312;4.776;2023-12-28T13:23:00;11.32;;;7.15;;
30539;SDS011;17321;46.312;4.776;2023-12-28T13:25:26;8.23;;;6.50;;
30539;SDS011;17321;46.312;4.776;2023-12-28T13:27:52;10.25;;;6.50;;
30539;SDS011;17321;46.312;4.776;2023-12-28T13:30:18;10.50;;;6.90;;
30539;SDS011;17321;46.312;4.776;2023-12-28T13:32:46;11.50;;;6.80;;
30539;SDS011;17321;46.312;4.776;2023-12-28T13:35:12;8.68;;;6.45;;
30539;SDS011;17321;46.312;4.776;2023-12-28T13:37:39;8.43;;;6.53;;
30539;SDS011;17321;46.312;4.776;2023-12-28T13:40:05;9.32;;;6.45;;
30539;SDS011;17321;46.312;4.776;2023-12-28T13:42:32;10.23;;;6.03;;
30539;SDS011;17321;46.312;4.776;2023-12-28T13:44:58;7.55;;;6.30;;
30539;SDS011;17321;46.312;4.776;2023-12-28T13:47:24;8.93;;;7.20;;
30539;SDS011;17321;46.312;4.776;2023-12-28T13:49:50;9.18;;;6.43;;
30539;SDS011;17321;46.312;4.776;2023-12-28T13:52:16;14.30;;;6.90;;
30539;SDS011;17321;46.312;4.776;2023-12-28T13:54:42;8.52;;;6.60;;
30539;SDS011;17321;46.312;4.776;2023-12-28T13:57:08;10.10;;;6.30;;
30539;SDS011;17321;46.312;4.776;2023-12-28T13:59:34;8.98;;;6.28;;
30539;SDS011;17321;46.312;4.776;2023-12-28T14:02:00;8.48;;;6.13;;
30539;SDS011;17321;46.312;4.776;2023-12-28T14:04:26;9.93;;;7.05;;
30539;SDS011;17321;46.312;4.776;2023-12-28T14:06:52;11.35;;;6.70;;
30539;SDS011;17321;46.312;4.776;2023-12-28T14:09:18;8.35;;;7.13;;
30539;SDS011;17321;46.312;4.776;2023-12-28T14:11:46;13.85;;;6.95;;
30539;SDS011;17321;46.312;4.776;2023-12-28T14:14:12;15.68;;;8.13;;
30539;SDS011;17321;46.312;4.776;2023-12-28T14:16:38;11.20;;;7.63;;
30539;SDS011;17321;46.312;4.776;2023-12-28T14:19:04;11.00;;;7.10;;
30539;SDS011;17321;46.312;4.776;2023-12-28T14:21:37;12.23;;;8.15;;
30539;SDS011;17321;46.312;4.776;2023-12-28T14:24:03;11.80;;;8.30;;
30539;SDS011;17321;46.312;4.776;2023-12-28T14:26:31;14.45;;;9.13;;
30539;SDS011;17321;46.312;4.776;2023-12-28T14:28:57;11.98;;;8.55;;
30539;SDS011;17321;46.312;4.776;2023-12-28T14:31:24;13.27;;;8.73;;
30539;SDS011;17321;46.312;4.776;2023-12-28T14:33:51;11.82;;;8.90;;
30539;SDS011;17321;46.312;4.776;2023-12-28T14:36:27;13.80;;;9.07;;
30539;SDS011;17321;46.312;4.776;2023-12-28T14:38:53;12.35;;;9.07;;
30539;SDS011;17321;46.312;4.776;2023-12-28T14:41:20;11.65;;;8.18;;
30539;SDS011;17321;46.312;4.776;2023-12-28T14:43:46;11.32;;;8.70;;
30539;SDS011;17321;46.312;4.776;2023-12-28T14:46:12;13.70;;;8.73;;
30539;SDS011;17321;46.312;4.776;2023-12-28T14:48:38;11.63;;;8.75;;
30539;SDS011;17321;46.312;4.776;2023-12-28T14:51:04;14.07;;;8.70;;
30539;SDS011;17321;46.312;4.776;2023-12-28T14:53:30;10.88;;;8.57;;